CheckWX is a tool to help pilots better visualize weather data.  It is not intended as a substitute for an official pre-flight weather briefing.

21:33:01 UTC

KAHN TAF
Athens / Ben Epps Airport
Athens, Georgia, USA
KAHN 161731Z 1618/1718 24006KT P6SM SCT040 FM162100 22005KT P6SM BKN050 FM170100 18003KT P6SM FEW250 FM171400 25004KT P6SM SKC FM171600 24004KT P6SM FEW035

Jun-16@
18:00 UTC

Jun-16 @ 18:00 UTC

Jun-16@
21:00 UTC

Jun-16 @ 21:00 UTC

KAHN 161731Z 1618/1718 24006KT P6SM SCT040

Expired

Wind
  • 240° at 6 KTS
Cloud Levels
  • Scattered at 4,000' AGL

Jun-16@
21:00 UTC

Jun-16 @ 21:00 UTC

Jun-17@
01:00 UTC

Jun-17 @ 01:00 UTC

FM162100 22005KT P6SM BKN050

From

From Standard forecast or significant change

Wind
  • 220° at 5 KTS
Cloud Levels
  • Broken at 5,000' AGL

Jun-17@
01:00 UTC

Jun-17 @ 01:00 UTC

Jun-17@
14:00 UTC

Jun-17 @ 14:00 UTC

FM170100 18003KT P6SM FEW250

From

From Standard forecast or significant change

Wind
  • 180° at 3 KTS
Cloud Levels
  • Few at 25,000' AGL

Jun-17@
14:00 UTC

Jun-17 @ 14:00 UTC

Jun-17@
16:00 UTC

Jun-17 @ 16:00 UTC

FM171400 25004KT P6SM SKC

From

From Standard forecast or significant change

Wind
  • 250° at 4 KTS
Cloud Levels
  • Clear skies

Jun-17@
16:00 UTC

Jun-17 @ 16:00 UTC

Jun-17@
18:00 UTC

Jun-17 @ 18:00 UTC

FM171600 24004KT P6SM FEW035

From

From Standard forecast or significant change

Wind
  • 240° at 4 KTS
Cloud Levels
  • Few at 3,500' AGL